Time;durP1;ratioP1;P1;durP2;ratioP2;P2;SDS_P1;SDS_P2;PMS_P1;PMS_P2;Temp;Humidity;BMP_temperature;BMP_pressure;BME280_temperature;BME280_humidity;BME280_pressure;Samples;Min_cycle;Max_cycle;Signal;HPM_P1;HPM_P2
2021/08/18 00:01:53;;;;;;;;;;;;;;;;;;5117999;27;1612;-58
2021/08/18 00:04:18;;;;;;;;;;;;;;;;;;5119692;27;1072;-58
2021/08/18 00:06:43;;;;;;;;;;;;;;;;;;5112339;27;1530;-57
2021/08/18 00:09:08;;;;;;;;;;;;;;;;;;5118391;27;1275;-58
2021/08/18 00:11:34;;;;;;;;;;;;;;;;;;5118598;27;1546;-58
2021/08/18 00:13:59;;;;;;;;;;;;;;;;;;5117005;27;1644;-57
2021/08/18 00:16:24;;;;;;;;;;;;;;;;;;5115695;27;1959;-57
2021/08/18 00:18:52;;;;;;;;;;;;;;;;;;5117813;27;1307;-57
2021/08/18 00:21:17;;;;;;;;;;;;;;;;;;5116954;27;1645;-57
2021/08/18 00:23:43;;;;;;;;;;;;;;;;;;5120269;28;1217;-57
2021/08/18 00:26:08;;;;;;;;;;;;;;;;;;5120016;28;1262;-57
2021/08/18 00:28:33;;;;;;;;;;;;;;;;;;5118197;28;1573;-58
2021/08/18 00:30:58;;;;;;;;;;;;;;;;;;5119544;28;1167;-57
2021/08/18 00:33:23;;;;;;;;;;;;;;;;;;5111417;28;1561;-58
2021/08/18 00:35:49;;;;;;;;;;;;;;;;;;5119477;28;1974;-57
2021/08/18 00:38:14;;;;;;;;;;;;;;;;;;5115811;28;1287;-57
2021/08/18 00:40:39;;;;;;;;;;;;;;;;;;5114906;27;1585;-58
2021/08/18 00:43:04;;;;;;;;;;;;;;;;;;5108150;28;1573;-57
2021/08/18 00:45:29;;;;;;;;;;;;;;;;;;5123484;27;1162;-57
2021/08/18 00:47:54;;;;;;;;;;;;;;;;;;5123470;27;1348;-58
2021/08/18 00:50:21;;;;;;;;;;;;;;;;;;5112934;27;1486;-57
2021/08/18 00:52:47;;;;;;;;;;;;;;;;;;5119585;27;1603;-57
2021/08/18 00:55:13;;;;;;;;;;;;;;;;;;5122408;27;1103;-58
2021/08/18 00:57:41;;;;;;;;;;;;;;;;;;5120693;27;1902;-58
2021/08/18 01:00:07;;;;;;;;;;;;;;;;;;5112759;27;1212;-57
2021/08/18 01:02:32;;;;;;;;;;;;;;;;;;5113878;27;1586;-58
2021/08/18 01:04:57;;;;;;;;;;;;;;;;;;5119188;27;1438;-57
2021/08/18 01:07:22;;;;;;;;;;;;;;;;;;5118283;27;1309;-57
2021/08/18 01:09:48;;;;;;;;;;;;;;;;;;5123549;27;1174;-58
2021/08/18 01:12:13;;;;;;;;;;;;;;;;;;5116868;27;1585;-57
2021/08/18 01:14:38;;;;;;;;;;;;;;;;;;5123528;27;1238;-57
2021/08/18 01:17:03;;;;;;;;;;;;;;;;;;5117528;27;1969;-58
2021/08/18 01:19:28;;;;;;;;;;;;;;;;;;5121356;27;1396;-57
2021/08/18 01:21:54;;;;;;;;;;;;;;;;;;5120930;27;1328;-57
2021/08/18 01:24:19;;;;;;;;;;;;;;;;;;5119576;27;1573;-58
2021/08/18 01:26:45;;;;;;;;;;;;;;;;;;5121684;27;1337;-57
2021/08/18 01:29:10;;;;;;;;;;;;;;;;;;5118036;27;1625;-57
2021/08/18 01:31:35;;;;;;;;;;;;;;;;;;5119616;27;1253;-58
2021/08/18 01:34:01;;;;;;;;;;;;;;;;;;5119885;27;1470;-57
2021/08/18 01:36:27;;;;;;;;;;;;;;;;;;5119287;27;1975;-58
2021/08/18 01:38:52;;;;;;;;;;;;;;;;;;5123135;27;1362;-56
2021/08/18 01:41:17;;;;;;;;;;;;;;;;;;5115348;27;1514;-57
2021/08/18 01:43:42;;;;;;;;;;;;;;;;;;5121889;27;1664;-57
2021/08/18 01:46:10;;;;;;;;;;;;;;;;;;5119461;27;1368;-57
2021/08/18 01:48:35;;;;;;;;;;;;;;;;;;5121018;27;1223;-57
2021/08/18 01:51:03;;;;;;;;;;;;;;;;;;5117544;27;1493;-57
2021/08/18 01:53:31;;;;;;;;;;;;;;;;;;5120559;27;1289;-57
2021/08/18 01:56:00;;;;;;;;;;;;;;;;;;5119000;27;1961;-57
2021/08/18 01:58:25;;;;;;;;;;;;;;;;;;5118299;27;1502;-57
2021/08/18 02:00:50;;;;;;;;;;;;;;;;;;5115775;27;1537;-57
2021/08/18 02:03:15;;;;;;;;;;;;;;;;;;5115463;27;1570;-56
2021/08/18 02:05:41;;;;;;;;;;;;;;;;;;5111199;27;1468;-57
2021/08/18 02:08:06;;;;;;;;;;;;;;;;;;5121843;27;1262;-58
2021/08/18 02:10:31;;;;;;;;;;;;;;;;;;5121606;27;1222;-57
2021/08/18 02:12:56;;;;;;;;;;;;;;;;;;5112819;27;1561;-57
2021/08/18 02:15:22;;;;;;;;;;;;;;;;;;5121611;27;1909;-58
2021/08/18 02:20:14;;;;;;;;;;;;;;;;;;5137287;22;1526;-87
2021/08/18 02:22:40;;;;;;;;;;;;;;;;;;5137787;28;992;-87
2021/08/18 02:25:05;;;;;;;;;;;;;;;;;;5124736;28;1279;-87
2021/08/18 02:27:30;;;;;;;;;;;;;;;;;;5097336;28;1096;-87
2021/08/18 02:29:56;;;;;;;;;;;;;;;;;;5097042;28;862;-87
2021/08/18 02:32:21;;;;;;;;;;;;;;;;;;5096903;28;1192;-88
2021/08/18 02:34:46;;;;;;;;;;;;;;;;;;5089925;28;1324;-87
2021/08/18 02:37:11;;;;;;;;;;;;;;;;;;5076379;28;1910;-87
2021/08/18 02:39:36;;;;;;;;;;;;;;;;;;5081051;28;1329;-88
2021/08/18 02:42:02;;;;;;;;;;;;;;;;;;5094625;28;996;-87
2021/08/18 02:44:27;;;;;;;;;;;;;;;;;;5096841;28;1349;-88
2021/08/18 02:46:52;;;;;;;;;;;;;;;;;;5095687;28;1911;-87
2021/08/18 02:49:18;;;;;;;;;;;;;;;;;;5096893;28;910;-88
2021/08/18 02:51:43;;;;;;;;;;;;;;;;;;5105854;28;1112;-88
2021/08/18 02:54:09;;;;;;;;;;;;;;;;;;5116736;28;1187;-88
2021/08/18 02:56:34;;;;;;;;;;;;;;;;;;5115607;28;1901;-88
2021/08/18 02:58:59;;;;;;;;;;;;;;;;;;5096232;28;1060;-87
2021/08/18 03:01:24;;;;;;;;;;;;;;;;;;5090546;28;1247;-87
2021/08/18 03:03:49;;;;;;;;;;;;;;;;;;5076968;28;1183;-87
2021/08/18 03:06:14;;;;;;;;;;;;;;;;;;5095416;28;882;-87
2021/08/18 03:08:40;;;;;;;;;;;;;;;;;;5096371;28;838;-87
2021/08/18 03:11:05;;;;;;;;;;;;;;;;;;5096057;28;966;-87
2021/08/18 03:13:30;;;;;;;;;;;;;;;;;;5096183;28;1311;-88
2021/08/18 03:15:55;;;;;;;;;;;;;;;;;;5095797;28;1906;-87
2021/08/18 03:18:20;;;;;;;;;;;;;;;;;;5089443;28;1305;-88
2021/08/18 03:20:46;;;;;;;;;;;;;;;;;;5091324;28;1256;-87
2021/08/18 03:23:11;;;;;;;;;;;;;;;;;;5095443;28;1268;-87
2021/08/18 03:25:36;;;;;;;;;;;;;;;;;;5095501;28;869;-87
2021/08/18 03:28:02;;;;;;;;;;;;;;;;;;5095798;28;791;-86
2021/08/18 03:30:27;;;;;;;;;;;;;;;;;;5095799;28;878;-87
2021/08/18 03:32:52;;;;;;;;;;;;;;;;;;5095439;28;1009;-87
2021/08/18 03:35:17;;;;;;;;;;;;;;;;;;5095120;28;1231;-87
2021/08/18 03:37:42;;;;;;;;;;;;;;;;;;5094412;28;2154;-87
2021/08/18 03:40:08;;;;;;;;;;;;;;;;;;5095058;28;1225;-86
2021/08/18 03:42:33;;;;;;;;;;;;;;;;;;5097945;28;1649;-87
2021/08/18 03:44:58;;;;;;;;;;;;;;;;;;5097611;28;1283;-87
2021/08/18 03:47:23;;;;;;;;;;;;;;;;;;5079344;28;1214;-87
2021/08/18 03:49:48;;;;;;;;;;;;;;;;;;5095601;28;1295;-87
2021/08/18 03:52:14;;;;;;;;;;;;;;;;;;5087955;28;1235;-87
2021/08/18 03:54:39;;;;;;;;;;;;;;;;;;5086293;28;1227;-87
2021/08/18 03:57:04;;;;;;;;;;;;;;;;;;5085201;28;1906;-86
2021/08/18 03:59:29;;;;;;;;;;;;;;;;;;5099754;28;949;-87
2021/08/18 04:01:54;;;;;;;;;;;;;;;;;;5115758;28;768;-87
2021/08/18 04:04:19;;;;;;;;;;;;;;;;;;5115766;28;1186;-87
2021/08/18 04:06:45;;;;;;;;;;;;;;;;;;5098912;28;1013;-87
2021/08/18 04:09:10;;;;;;;;;;;;;;;;;;5095390;28;838;-87
2021/08/18 04:11:35;;;;;;;;;;;;;;;;;;5063921;28;1183;-87
2021/08/18 04:14:00;;;;;;;;;;;;;;;;;;5075594;28;1873;-87
2021/08/18 04:16:25;;;;;;;;;;;;;;;;;;5074851;28;1894;-87
2021/08/18 04:18:51;;;;;;;;;;;;;;;;;;5087860;28;1989;-87
2021/08/18 04:21:16;;;;;;;;;;;;;;;;;;5094842;28;819;-87
2021/08/18 04:23:41;;;;;;;;;;;;;;;;;;5086516;28;1365;-88
2021/08/18 04:26:06;;;;;;;;;;;;;;;;;;5094921;28;1238;-87
2021/08/18 04:28:31;;;;;;;;;;;;;;;;;;5081008;28;2010;-87
2021/08/18 04:30:57;;;;;;;;;;;;;;;;;;5090241;28;1171;-87
2021/08/18 04:33:22;;;;;;;;;;;;;;;;;;5075556;28;1266;-88
2021/08/18 04:35:47;;;;;;;;;;;;;;;;;;5089453;28;1902;-87
2021/08/18 04:38:12;;;;;;;;;;;;;;;;;;5094856;28;1970;-87
2021/08/18 04:40:37;;;;;;;;;;;;;;;;;;5094930;28;839;-87
2021/08/18 04:43:02;;;;;;;;;;;;;;;;;;5094566;28;1172;-87
2021/08/18 04:45:28;;;;;;;;;;;;;;;;;;5077050;28;1195;-88
2021/08/18 04:47:53;;;;;;;;;;;;;;;;;;5078980;28;1203;-88
2021/08/18 04:50:18;;;;;;;;;;;;;;;;;;5093263;28;926;-88
2021/08/18 04:52:44;;;;;;;;;;;;;;;;;;5095968;28;1052;-88
2021/08/18 04:55:09;;;;;;;;;;;;;;;;;;5080296;28;1560;-88
2021/08/18 04:57:34;;;;;;;;;;;;;;;;;;5075597;28;1910;-88
2021/08/18 05:00:00;;;;;;;;;;;;;;;;;;5075081;28;803;-88
2021/08/18 05:02:25;;;;;;;;;;;;;;;;;;5079557;28;1858;-88
2021/08/18 05:04:50;;;;;;;;;;;;;;;;;;5091101;28;1269;-87
2021/08/18 05:07:15;;;;;;;;;;;;;;;;;;5100954;28;1939;-87
2021/08/18 05:09:40;;;;;;;;;;;;;;;;;;5097331;28;1230;-88
2021/08/18 05:12:06;;;;;;;;;;;;;;;;;;5095620;28;1368;-88
2021/08/18 05:14:31;;;;;;;;;;;;;;;;;;5095785;28;1169;-87
2021/08/18 05:16:56;;;;;;;;;;;;;;;;;;5086471;28;1963;-87
2021/08/18 05:19:21;;;;;;;;;;;;;;;;;;5086195;28;942;-88
2021/08/18 05:21:46;;;;;;;;;;;;;;;;;;5084383;28;1183;-87
2021/08/18 05:24:12;;;;;;;;;;;;;;;;;;5096678;28;1364;-88
2021/08/18 05:26:37;;;;;;;;;;;;;;;;;;5096238;28;1049;-87
2021/08/18 05:29:02;;;;;;;;;;;;;;;;;;5095557;28;1199;-87
2021/08/18 05:31:27;;;;;;;;;;;;;;;;;;5098588;28;1036;-88
2021/08/18 05:33:52;;;;;;;;;;;;;;;;;;5088809;28;1222;-88
2021/08/18 05:36:17;;;;;;;;;;;;;;;;;;5078023;28;1898;-87
2021/08/18 05:38:43;;;;;;;;;;;;;;;;;;5080025;28;1674;-87
2021/08/18 05:41:08;;;;;;;;;;;;;;;;;;5098936;28;957;-88
2021/08/18 05:43:33;;;;;;;;;;;;;;;;;;5098311;28;1187;-88
2021/08/18 05:45:58;;;;;;;;;;;;;;;;;;5090517;28;1556;-88
2021/08/18 05:48:24;;;;;;;;;;;;;;;;;;5087394;28;1163;-87
2021/08/18 05:50:49;;;;;;;;;;;;;;;;;;5087918;28;1149;-88
2021/08/18 05:53:18;;;;;;;;;;;;;;;;;;5092533;28;1579;-88
2021/08/18 05:55:44;;;;;;;;;;;;;;;;;;5060725;28;1906;-87
2021/08/18 05:58:09;;;;;;;;;;;;;;;;;;5093841;28;1844;-87
2021/08/18 06:00:34;;;;;;;;;;;;;;;;;;5090782;28;1245;-87
2021/08/18 06:03:00;;;;;;;;;;;;;;;;;;5078069;28;863;-87
2021/08/18 06:05:25;;;;;;;;;;;;;;;;;;5094470;28;1323;-88
2021/08/18 06:07:50;;;;;;;;;;;;;;;;;;5098017;28;1072;-88
2021/08/18 06:10:15;;;;;;;;;;;;;;;;;;5086637;28;1330;-88
2021/08/18 06:12:40;;;;;;;;;;;;;;;;;;5089574;28;1211;-88
2021/08/18 06:15:06;;;;;;;;;;;;;;;;;;5100037;28;1271;-87
2021/08/18 06:17:31;;;;;;;;;;;;;;;;;;5091160;28;1911;-87
2021/08/18 06:19:56;;;;;;;;;;;;;;;;;;5084326;28;1556;-87
2021/08/18 06:22:21;;;;;;;;;;;;;;;;;;5081932;28;1163;-87
2021/08/18 06:24:50;;;;;;;;;;;;;;;;;;5077361;28;1212;-87
2021/08/18 06:27:16;;;;;;;;;;;;;;;;;;5060952;28;1125;-87
2021/08/18 06:29:41;;;;;;;;;;;;;;;;;;5093629;28;1223;-87
2021/08/18 06:32:06;;;;;;;;;;;;;;;;;;5085439;28;780;-88
2021/08/18 06:34:31;;;;;;;;;;;;;;;;;;5080191;28;1787;-88
2021/08/18 06:37:01;;;;;;;;;;;;;;;;;;5095061;28;1910;-87
2021/08/18 06:39:27;;;;;;;;;;;;;;;;;;5091840;28;839;-88
2021/08/18 06:41:52;;;;;;;;;;;;;;;;;;5096355;28;883;-88
2021/08/18 06:44:18;;;;;;;;;;;;;;;;;;5097122;28;1175;-88
2021/08/18 06:46:43;;;;;;;;;;;;;;;;;;5097211;28;978;-88
2021/08/18 06:49:09;;;;;;;;;;;;;;;;;;5080444;28;1214;-88
2021/08/18 06:51:35;;;;;;;;;;;;;;;;;;5082854;28;1255;-88
2021/08/18 06:54:00;;;;;;;;;;;;;;;;;;5097097;28;1284;-88
2021/08/18 06:56:25;;;;;;;;;;;;;;;;;;5096896;28;1909;-88
2021/08/18 06:58:50;;;;;;;;;;;;;;;;;;5103125;28;941;-88
2021/08/18 07:01:15;;;;;;;;;;;;;;;;;;5097075;28;783;-88
2021/08/18 07:03:40;;;;;;;;;;;;;;;;;;5096794;28;1262;-88
2021/08/18 07:06:06;;;;;;;;;;;;;;;;;;5094523;28;982;-87
2021/08/18 07:08:31;;;;;;;;;;;;;;;;;;5096753;28;802;-88
2021/08/18 07:10:56;;;;;;;;;;;;;;;;;;5096815;28;902;-87
2021/08/18 07:13:21;;;;;;;;;;;;;;;;;;5085341;28;1234;-88
2021/08/18 07:15:46;;;;;;;;;;;;;;;;;;5094159;28;1915;-88
2021/08/18 07:18:11;;;;;;;;;;;;;;;;;;5083107;28;1187;-88
2021/08/18 07:20:37;;;;;;;;;;;;;;;;;;5084382;28;1144;-88
2021/08/18 07:23:02;;;;;;;;;;;;;;;;;;5079104;28;912;-88
2021/08/18 07:25:27;;;;;;;;;;;;;;;;;;5096669;28;1246;-88
2021/08/18 07:27:52;;;;;;;;;;;;;;;;;;5096878;28;2037;-88
2021/08/18 07:30:18;;;;;;;;;;;;;;;;;;5096562;28;1214;-88
2021/08/18 07:32:43;;;;;;;;;;;;;;;;;;5091458;28;1144;-88
2021/08/18 07:35:08;;;;;;;;;;;;;;;;;;5076192;28;1171;-87
2021/08/18 07:37:33;;;;;;;;;;;;;;;;;;5089741;28;1906;-87
2021/08/18 07:39:59;;;;;;;;;;;;;;;;;;5075854;28;839;-87
2021/08/18 07:42:24;;;;;;;;;;;;;;;;;;5087927;28;1035;-88
2021/08/18 07:44:52;;;;;;;;;;;;;;;;;;5096271;28;1273;-89
2021/08/18 07:47:17;;;;;;;;;;;;;;;;;;5095949;28;783;-88
2021/08/18 07:49:43;;;;;;;;;;;;;;;;;;5086733;28;1174;-88
2021/08/18 07:52:08;;;;;;;;;;;;;;;;;;5088976;28;894;-88
2021/08/18 07:54:33;;;;;;;;;;;;;;;;;;5096160;28;1341;-88
2021/08/18 07:56:58;;;;;;;;;;;;;;;;;;5084784;28;1906;-87
2021/08/18 07:59:23;;;;;;;;;;;;;;;;;;5085777;28;1473;-88
2021/08/18 08:01:49;;;;;;;;;;;;;;;;;;5096025;28;902;-88
2021/08/18 08:04:14;;;;;;;;;;;;;;;;;;5095883;28;1251;-88
2021/08/18 08:06:39;;;;;;;;;;;;;;;;;;5096232;28;838;-88
2021/08/18 08:09:04;;;;;;;;;;;;;;;;;;5096169;28;1223;-88
2021/08/18 08:11:30;;;;;;;;;;;;;;;;;;5078853;28;1211;-88
2021/08/18 08:13:55;;;;;;;;;;;;;;;;;;5095594;28;1270;-88
2021/08/18 08:16:20;;;;;;;;;;;;;;;;;;5096009;28;1902;-88
2021/08/18 08:18:45;;;;;;;;;;;;;;;;;;5096673;28;1582;-88
2021/08/18 08:21:10;;;;;;;;;;;;;;;;;;5111704;28;1272;-88
2021/08/18 08:23:35;;;;;;;;;;;;;;;;;;5095553;28;1305;-88
2021/08/18 08:26:01;;;;;;;;;;;;;;;;;;5090828;28;795;-88
2021/08/18 08:28:26;;;;;;;;;;;;;;;;;;5086269;28;1068;-88
2021/08/18 08:30:51;;;;;;;;;;;;;;;;;;5090859;28;1177;-88
2021/08/18 08:33:17;;;;;;;;;;;;;;;;;;5095441;28;1279;-87
2021/08/18 08:35:42;;;;;;;;;;;;;;;;;;5091976;28;1898;-88
2021/08/18 08:38:07;;;;;;;;;;;;;;;;;;5084298;28;1202;-88
2021/08/18 08:40:32;;;;;;;;;;;;;;;;;;5082972;28;901;-88
2021/08/18 08:42:57;;;;;;;;;;;;;;;;;;5093728;28;1763;-88
2021/08/18 08:45:23;;;;;;;;;;;;;;;;;;5077083;28;1204;-88
2021/08/18 08:47:48;;;;;;;;;;;;;;;;;;5058054;28;1053;-89
2021/08/18 08:50:14;;;;;;;;;;;;;;;;;;5075638;28;803;-88
2021/08/18 08:52:39;;;;;;;;;;;;;;;;;;5092291;28;1252;-88
2021/08/18 08:55:04;;;;;;;;;;;;;;;;;;5096413;28;1212;-88
2021/08/18 08:57:29;;;;;;;;;;;;;;;;;;5094074;28;1901;-84
2021/08/18 08:59:55;;;;;;;;;;;;;;;;;;5093464;28;924;-88
2021/08/18 09:02:20;;;;;;;;;;;;;;;;;;5091727;28;1259;-88
2021/08/18 09:04:46;;;;;;;;;;;;;;;;;;5079133;28;1232;-88
2021/08/18 09:07:14;;;;;;;;;;;;;;;;;;5079962;28;851;-88
2021/08/18 09:09:41;;;;;;;;;;;;;;;;;;5097471;28;1231;-88
2021/08/18 09:12:08;;;;;;;;;;;;;;;;;;5078969;28;847;-88
2021/08/18 09:14:33;;;;;;;;;;;;;;;;;;5108813;28;1236;-88
2021/08/18 09:16:58;;;;;;;;;;;;;;;;;;5099273;28;1883;-88
2021/08/18 09:19:28;;;;;;;;;;;;;;;;;;5098772;28;1234;-88
2021/08/18 09:21:53;;;;;;;;;;;;;;;;;;5098955;28;2071;-88
2021/08/18 09:24:22;;;;;;;;;;;;;;;;;;5098946;28;1272;-88
2021/08/18 09:26:55;;;;;;;;;;;;;;;;;;5081772;28;1092;-89
2021/08/18 09:29:27;;;;;;;;;;;;;;;;;;5068072;28;1504;-88
2021/08/18 09:31:52;;;;;;;;;;;;;;;;;;5080929;28;883;-88
2021/08/18 09:34:17;;;;;;;;;;;;;;;;;;5094187;28;1336;-88
2021/08/18 09:36:42;;;;;;;;;;;;;;;;;;5094462;28;1910;-88
2021/08/18 09:39:20;;;;;;;;;;;;;;;;;;5094864;28;902;-87
2021/08/18 09:41:45;;;;;;;;;;;;;;;;;;5082680;28;1194;-88
2021/08/18 09:44:11;;;;;;;;;;;;;;;;;;5098465;28;1230;-87
2021/08/18 09:46:36;;;;;;;;;;;;;;;;;;5087289;28;1096;-88
2021/08/18 09:49:05;;;;;;;;;;;;;;;;;;5097110;28;870;-87
2021/08/18 09:51:30;;;;;;;;;;;;;;;;;;5080560;28;1099;-88
2021/08/18 09:53:56;;;;;;;;;;;;;;;;;;5080326;28;1270;-87
2021/08/18 09:56:21;;;;;;;;;;;;;;;;;;5098609;28;1902;-87
2021/08/18 09:58:47;;;;;;;;;;;;;;;;;;5096156;28;1906;-88
2021/08/18 10:01:14;;;;;;;;;;;;;;;;;;5098386;28;779;-88
2021/08/18 10:03:40;;;;;;;;;;;;;;;;;;5098119;28;1190;-88
2021/08/18 10:06:06;;;;;;;;;;;;;;;;;;5098283;28;1143;-87
2021/08/18 10:08:31;;;;;;;;;;;;;;;;;;5097295;28;1777;-87
2021/08/18 10:10:56;;;;;;;;;;;;;;;;;;5094397;28;1069;-87
2021/08/18 10:13:22;;;;;;;;;;;;;;;;;;5097299;28;1266;-87
2021/08/18 10:15:47;;;;;;;;;;;;;;;;;;5097060;28;1964;-87
2021/08/18 10:18:18;;;;;;;;;;;;;;;;;;5096834;28;783;-87
2021/08/18 10:20:43;;;;;;;;;;;;;;;;;;5079099;28;895;-87
2021/08/18 10:23:10;;;;;;;;;;;;;;;;;;5075642;28;1223;-88
2021/08/18 10:25:44;;;;;;;;;;;;;;;;;;5077085;28;1389;-87
2021/08/18 10:28:09;;;;;;;;;;;;;;;;;;5084743;28;1706;-87
2021/08/18 10:30:44;;;;;;;;;;;;;;;;;;5098140;28;863;-88
2021/08/18 10:33:09;;;;;;;;;;;;;;;;;;5097882;28;878;-89
2021/08/18 10:35:35;;;;;;;;;;;;;;;;;;5096996;28;1664;-88
2021/08/18 10:38:19;;;;;;;;;;;;;;;;;;5086775;28;1906;-88
2021/08/18 10:40:44;;;;;;;;;;;;;;;;;;5087326;28;1855;-88
2021/08/18 10:43:09;;;;;;;;;;;;;;;;;;5097267;28;1049;-87
2021/08/18 10:45:37;;;;;;;;;;;;;;;;;;5096876;28;1233;-88
2021/08/18 10:48:03;;;;;;;;;;;;;;;;;;5112760;28;902;-88
2021/08/18 10:50:34;;;;;;;;;;;;;;;;;;5117010;28;862;-89
2021/08/18 10:52:59;;;;;;;;;;;;;;;;;;5109257;28;1092;-88
2021/08/18 10:55:25;;;;;;;;;;;;;;;;;;5096524;28;1195;-88
2021/08/18 10:57:56;;;;;;;;;;;;;;;;;;5096583;28;1930;-88
2021/08/18 11:00:35;;;;;;;;;;;;;;;;;;5096749;28;951;-88
2021/08/18 11:03:01;;;;;;;;;;;;;;;;;;5096351;28;862;-88
2021/08/18 11:05:35;;;;;;;;;;;;;;;;;;5096284;28;1981;-87
2021/08/18 11:08:01;;;;;;;;;;;;;;;;;;5095757;28;1576;-87
2021/08/18 11:10:27;;;;;;;;;;;;;;;;;;5091388;28;1116;-88
2021/08/18 11:12:53;;;;;;;;;;;;;;;;;;5089436;28;1664;-89
2021/08/18 11:15:18;;;;;;;;;;;;;;;;;;5095885;28;1918;-88
2021/08/18 11:17:43;;;;;;;;;;;;;;;;;;5098179;28;1898;-87
2021/08/18 11:20:10;;;;;;;;;;;;;;;;;;5081036;28;1061;-87
2021/08/18 11:22:35;;;;;;;;;;;;;;;;;;5070560;28;1246;-88
2021/08/18 11:25:03;;;;;;;;;;;;;;;;;;5057623;28;1198;-87
2021/08/18 11:27:28;;;;;;;;;;;;;;;;;;5075161;28;846;-88
2021/08/18 11:29:54;;;;;;;;;;;;;;;;;;5074994;28;1060;-87
2021/08/18 11:32:27;;;;;;;;;;;;;;;;;;5057552;28;1115;-87
2021/08/18 11:34:52;;;;;;;;;;;;;;;;;;5082946;28;1410;-87
2021/08/18 11:37:17;;;;;;;;;;;;;;;;;;5091241;28;1981;-87
2021/08/18 11:39:44;;;;;;;;;;;;;;;;;;5078037;28;1187;-87
2021/08/18 11:42:13;;;;;;;;;;;;;;;;;;5080350;28;1132;-87
2021/08/18 11:44:39;;;;;;;;;;;;;;;;;;5091809;28;1282;-87
2021/08/18 11:47:08;;;;;;;;;;;;;;;;;;5094141;28;1247;-87
2021/08/18 11:49:33;;;;;;;;;;;;;;;;;;5095231;28;922;-87
2021/08/18 11:51:59;;;;;;;;;;;;;;;;;;5099574;28;1836;-87
2021/08/18 11:54:24;;;;;;;;;;;;;;;;;;5076963;28;1264;-88
2021/08/18 11:56:59;;;;;;;;;;;;;;;;;;5094908;28;1906;-88
2021/08/18 11:59:24;;;;;;;;;;;;;;;;;;5083511;28;1088;-88
2021/08/18 12:01:52;;;;;;;;;;;;;;;;;;5084121;28;843;-88
2021/08/18 12:04:19;;;;;;;;;;;;;;;;;;5094827;28;1266;-88
2021/08/18 12:06:46;;;;;;;;;;;;;;;;;;5095026;28;1064;-87
2021/08/18 12:09:19;;;;;;;;;;;;;;;;;;5095198;28;826;-87
2021/08/18 12:11:44;;;;;;;;;;;;;;;;;;5095001;28;1176;-87
2021/08/18 12:14:10;;;;;;;;;;;;;;;;;;5094348;28;1331;-88
2021/08/18 12:16:35;;;;;;;;;;;;;;;;;;5095203;28;1902;-88
2021/08/18 12:19:13;;;;;;;;;;;;;;;;;;5094635;28;1091;-88
2021/08/18 12:21:38;;;;;;;;;;;;;;;;;;5087542;28;1056;-87
2021/08/18 12:24:08;;;;;;;;;;;;;;;;;;5096131;28;1197;-88
2021/08/18 12:26:37;;;;;;;;;;;;;;;;;;5095522;28;1119;-87
2021/08/18 12:29:03;;;;;;;;;;;;;;;;;;5095207;28;1110;-88
2021/08/18 12:32:07;;;;;;;;;;;;;;;;;;5095046;28;885;-87
2021/08/18 12:34:47;;;;;;;;;;;;;;;;;;5040461;28;1414;-87
2021/08/18 12:37:19;;;;;;;;;;;;;;;;;;5061013;28;1906;-88
2021/08/18 12:39:44;;;;;;;;;;;;;;;;;;5095768;28;952;-88
2021/08/18 12:42:26;;;;;;;;;;;;;;;;;;5098289;28;1540;-88
2021/08/18 12:45:01;;;;;;;;;;;;;;;;;;5098930;28;1282;-88
2021/08/18 12:47:36;;;;;;;;;;;;;;;;;;5082792;28;1200;-89
2021/08/18 12:50:02;;;;;;;;;;;;;;;;;;5075935;28;1258;-88
2021/08/18 12:52:27;;;;;;;;;;;;;;;;;;5091033;28;1289;-88
2021/08/18 12:54:53;;;;;;;;;;;;;;;;;;5081149;28;1244;-88
2021/08/18 12:57:18;;;;;;;;;;;;;;;;;;5080167;28;1975;-87
2021/08/18 12:59:43;;;;;;;;;;;;;;;;;;5089139;28;775;-88
2021/08/18 13:02:09;;;;;;;;;;;;;;;;;;5091097;28;862;-87
2021/08/18 13:04:34;;;;;;;;;;;;;;;;;;5095528;28;1324;-87
2021/08/18 13:06:59;;;;;;;;;;;;;;;;;;5091689;28;1021;-88
2021/08/18 13:09:24;;;;;;;;;;;;;;;;;;5089827;28;1039;-88
2021/08/18 13:11:49;;;;;;;;;;;;;;;;;;5098305;28;1235;-87
2021/08/18 13:14:15;;;;;;;;;;;;;;;;;;5089288;28;1347;-88
2021/08/18 13:16:41;;;;;;;;;;;;;;;;;;5101851;28;1898;-88
2021/08/18 13:19:06;;;;;;;;;;;;;;;;;;5097782;28;1698;-88
2021/08/18 13:21:31;;;;;;;;;;;;;;;;;;5098477;28;902;-90
2021/08/18 13:23:56;;;;;;;;;;;;;;;;;;5098138;28;1232;-88
2021/08/18 13:26:21;;;;;;;;;;;;;;;;;;5098156;28;1146;-89
2021/08/18 13:28:46;;;;;;;;;;;;;;;;;;5097946;28;1589;-89
2021/08/18 13:31:12;;;;;;;;;;;;;;;;;;5097958;28;831;-88
2021/08/18 13:33:37;;;;;;;;;;;;;;;;;;5102887;28;1258;-89
2021/08/18 13:36:03;;;;;;;;;;;;;;;;;;5115612;28;1910;-88
2021/08/18 13:38:29;;;;;;;;;;;;;;;;;;5099494;28;1222;-88
2021/08/18 13:40:54;;;;;;;;;;;;;;;;;;5098300;28;823;-88
2021/08/18 13:43:20;;;;;;;;;;;;;;;;;;5097641;28;1178;-89
2021/08/18 13:45:45;;;;;;;;;;;;;;;;;;5098057;28;799;-89
2021/08/18 13:48:10;;;;;;;;;;;;;;;;;;5097712;28;930;-89
2021/08/18 13:50:35;;;;;;;;;;;;;;;;;;5100498;28;1654;-89
2021/08/18 13:53:00;;;;;;;;;;;;;;;;;;5079626;28;1029;-89
2021/08/18 13:55:26;;;;;;;;;;;;;;;;;;5098061;28;1180;-89
2021/08/18 13:57:51;;;;;;;;;;;;;;;;;;5097707;28;1901;-88
2021/08/18 14:00:16;;;;;;;;;;;;;;;;;;5097511;28;1444;-88
2021/08/18 14:02:41;;;;;;;;;;;;;;;;;;5097404;28;1235;-88
2021/08/18 14:05:07;;;;;;;;;;;;;;;;;;5103496;28;1420;-88
2021/08/18 14:07:32;;;;;;;;;;;;;;;;;;5097023;28;990;-89
2021/08/18 14:09:57;;;;;;;;;;;;;;;;;;5097197;28;855;-87
2021/08/18 14:12:22;;;;;;;;;;;;;;;;;;5097251;28;852;-88
2021/08/18 14:14:47;;;;;;;;;;;;;;;;;;5108379;28;1839;-88
2021/08/18 14:17:13;;;;;;;;;;;;;;;;;;5097657;28;1968;-88
2021/08/18 14:19:38;;;;;;;;;;;;;;;;;;5095674;28;1491;-88
2021/08/18 14:22:03;;;;;;;;;;;;;;;;;;5085423;28;1465;-87
2021/08/18 14:24:28;;;;;;;;;;;;;;;;;;5078279;28;1268;-88
2021/08/18 14:26:53;;;;;;;;;;;;;;;;;;5077095;28;859;-89
2021/08/18 14:29:19;;;;;;;;;;;;;;;;;;5096795;28;2001;-89
2021/08/18 14:31:44;;;;;;;;;;;;;;;;;;5099479;28;847;-89
2021/08/18 14:34:09;;;;;;;;;;;;;;;;;;5080629;28;1353;-88
2021/08/18 14:36:34;;;;;;;;;;;;;;;;;;5098565;28;1901;-89
2021/08/18 14:39:00;;;;;;;;;;;;;;;;;;5092322;28;1190;-88
2021/08/18 14:41:26;;;;;;;;;;;;;;;;;;5076895;28;838;-88
2021/08/18 14:43:51;;;;;;;;;;;;;;;;;;5092357;28;1238;-89
2021/08/18 14:46:16;;;;;;;;;;;;;;;;;;5100226;28;1540;-89
2021/08/18 14:48:41;;;;;;;;;;;;;;;;;;5098477;28;718;-89
2021/08/18 14:51:08;;;;;;;;;;;;;;;;;;5094386;28;1137;-89
2021/08/18 14:53:33;;;;;;;;;;;;;;;;;;5077765;28;1302;-88
2021/08/18 14:55:58;;;;;;;;;;;;;;;;;;5060066;28;1886;-88
2021/08/18 14:58:23;;;;;;;;;;;;;;;;;;5088246;28;1147;-89
2021/08/18 15:00:49;;;;;;;;;;;;;;;;;;5085984;28;1179;-89
2021/08/18 15:03:14;;;;;;;;;;;;;;;;;;5059690;28;1179;-88
2021/08/18 15:05:39;;;;;;;;;;;;;;;;;;5085185;28;1129;-89
2021/08/18 15:08:05;;;;;;;;;;;;;;;;;;5098207;28;1497;-89
2021/08/18 15:10:30;;;;;;;;;;;;;;;;;;5098316;28;859;-89
2021/08/18 15:12:55;;;;;;;;;;;;;;;;;;5098475;28;823;-89
2021/08/18 15:15:20;;;;;;;;;;;;;;;;;;5098154;28;1256;-89
2021/08/18 15:17:45;;;;;;;;;;;;;;;;;;5086582;28;2014;-89
2021/08/18 15:20:11;;;;;;;;;;;;;;;;;;5094714;28;2325;-88
2021/08/18 15:22:38;;;;;;;;;;;;;;;;;;5097497;28;1176;-89
2021/08/18 15:25:03;;;;;;;;;;;;;;;;;;5097971;28;1221;-89
2021/08/18 15:27:28;;;;;;;;;;;;;;;;;;5079006;28;1556;-88
2021/08/18 15:29:54;;;;;;;;;;;;;;;;;;5087313;28;965;-89
2021/08/18 15:32:19;;;;;;;;;;;;;;;;;;5077134;28;807;-88
2021/08/18 15:34:46;;;;;;;;;;;;;;;;;;5088242;28;1270;-89
2021/08/18 15:37:12;;;;;;;;;;;;;;;;;;5079374;28;1973;-88
2021/08/18 15:39:37;;;;;;;;;;;;;;;;;;5089929;28;1017;-89
2021/08/18 15:42:02;;;;;;;;;;;;;;;;;;5082378;28;1743;-89
2021/08/18 15:44:27;;;;;;;;;;;;;;;;;;5082661;28;1389;-88
2021/08/18 15:46:53;;;;;;;;;;;;;;;;;;5117912;28;807;-89
2021/08/18 15:49:18;;;;;;;;;;;;;;;;;;5117687;28;1087;-88
2021/08/18 15:51:43;;;;;;;;;;;;;;;;;;5102424;28;1658;-89
2021/08/18 15:54:08;;;;;;;;;;;;;;;;;;5097773;28;1302;-89
2021/08/18 15:56:36;;;;;;;;;;;;;;;;;;5097581;28;1965;-89
2021/08/18 15:59:02;;;;;;;;;;;;;;;;;;5088015;28;1950;-88
2021/08/18 16:01:27;;;;;;;;;;;;;;;;;;5083239;28;1029;-88
2021/08/18 16:03:52;;;;;;;;;;;;;;;;;;5096545;28;1390;-89
2021/08/18 16:06:17;;;;;;;;;;;;;;;;;;5088850;28;818;-88
2021/08/18 16:08:43;;;;;;;;;;;;;;;;;;5087830;28;1234;-88
2021/08/18 16:11:08;;;;;;;;;;;;;;;;;;5088764;28;922;-88
2021/08/18 16:13:33;;;;;;;;;;;;;;;;;;5078265;28;1263;-88
2021/08/18 16:15:58;;;;;;;;;;;;;;;;;;5085158;28;1902;-89
2021/08/18 16:18:24;;;;;;;;;;;;;;;;;;5078599;28;1254;-89
2021/08/18 16:20:49;;;;;;;;;;;;;;;;;;5088083;28;1163;-88
2021/08/18 16:23:14;;;;;;;;;;;;;;;;;;5096185;28;1818;-88
2021/08/18 16:25:39;;;;;;;;;;;;;;;;;;5096914;28;1231;-89
2021/08/18 16:28:05;;;;;;;;;;;;;;;;;;5097828;28;887;-88
2021/08/18 16:30:30;;;;;;;;;;;;;;;;;;5115698;28;1044;-89
2021/08/18 16:32:56;;;;;;;;;;;;;;;;;;5098212;28;1009;-89
2021/08/18 16:35:21;;;;;;;;;;;;;;;;;;5100813;28;1277;-88
2021/08/18 16:37:46;;;;;;;;;;;;;;;;;;5083489;28;1940;-88
2021/08/18 16:40:12;;;;;;;;;;;;;;;;;;5101942;28;1060;-89
2021/08/18 16:42:37;;;;;;;;;;;;;;;;;;5066279;28;1251;-88
2021/08/18 16:45:02;;;;;;;;;;;;;;;;;;5097598;28;1573;-88
2021/08/18 16:47:28;;;;;;;;;;;;;;;;;;5076365;28;1060;-88
2021/08/18 16:49:53;;;;;;;;;;;;;;;;;;5058734;28;926;-88
2021/08/18 16:52:21;;;;;;;;;;;;;;;;;;5086618;28;1144;-88
2021/08/18 16:54:46;;;;;;;;;;;;;;;;;;5076917;28;1282;-88
2021/08/18 16:57:11;;;;;;;;;;;;;;;;;;5076992;28;1902;-88
2021/08/18 16:59:37;;;;;;;;;;;;;;;;;;5094815;28;1551;-90